Time;durP1;ratioP1;P1;durP2;ratioP2;P2;SDS_P1;SDS_P2;PMS_P1;PMS_P2;Temp;Humidity;BMP_temperature;BMP_pressure;BME280_temperature;BME280_humidity;BME280_pressure;Samples;Min_cycle;Max_cycle;Signal;HPM_P1;HPM_P2
2022/04/23 00:01:26;;;;;;;123.07;112.47;;;13.70;61.70;;;;;;5150177;27;20485;-73
2022/04/23 00:03:55;;;;;;;125.80;115.10;;;13.70;61.80;;;;;;5150375;27;20052;-73
2022/04/23 00:06:21;;;;;;;125.30;114.68;;;13.60;62.00;;;;;;5133671;27;20055;-72
2022/04/23 00:08:49;;;;;;;126.22;115.20;;;13.60;62.20;;;;;;5134437;27;20047;-73
2022/04/23 00:11:16;;;;;;;124.35;113.68;;;13.60;62.30;;;;;;5133241;27;20058;-73
2022/04/23 00:13:44;;;;;;;124.82;113.43;;;13.70;62.40;;;;;;5134478;27;20052;-73
2022/04/23 00:16:14;;;;;;;125.25;114.15;;;13.60;62.40;;;;;;5132811;27;20109;-73
2022/04/23 00:18:42;;;;;;;125.90;115.00;;;13.60;62.60;;;;;;5133972;27;20048;-73
2022/04/23 00:21:10;;;;;;;125.80;114.90;;;13.60;62.50;;;;;;5132966;27;20054;-73
2022/04/23 00:23:37;;;;;;;126.45;115.38;;;13.60;62.60;;;;;;5134110;27;20052;-73
2022/04/23 00:26:04;;;;;;;125.88;114.85;;;13.70;62.60;;;;;;5132456;27;20508;-72
2022/04/23 00:28:31;;;;;;;126.05;115.22;;;13.60;62.70;;;;;;5132513;27;20074;-73
2022/04/23 00:30:58;;;;;;;126.25;115.38;;;13.60;62.80;;;;;;5132589;27;20150;-73
2022/04/23 00:33:25;;;;;;;125.10;114.10;;;13.60;62.90;;;;;;5149974;27;20066;-73
2022/04/23 00:35:52;;;;;;;124.60;113.70;;;13.50;63.00;;;;;;5134006;27;20134;-72
2022/04/23 00:38:20;;;;;;;125.40;114.55;;;13.50;63.10;;;;;;5132363;27;20039;-72
2022/04/23 00:40:48;;;;;;;123.38;112.68;;;13.50;63.30;;;;;;5149957;27;20066;-72
2022/04/23 00:43:27;;;;;;;124.85;113.95;;;13.50;63.40;;;;;;5133929;27;20286;-73
2022/04/23 00:45:54;;;;;;;125.97;114.90;;;13.50;63.20;;;;;;5132622;27;20052;-72
2022/04/23 00:48:22;;;;;;;125.30;114.30;;;13.50;63.50;;;;;;5132384;27;20543;-73
2022/04/23 00:50:50;;;;;;;125.88;114.88;;;13.50;63.50;;;;;;5132032;27;20047;-72
2022/04/23 00:53:18;;;;;;;126.50;115.20;;;13.50;63.40;;;;;;5132683;27;20421;-73
2022/04/23 00:55:47;;;;;;;126.53;115.47;;;13.60;63.50;;;;;;5132687;27;20082;-72
2022/04/23 00:58:16;;;;;;;125.72;114.78;;;13.50;63.30;;;;;;5133729;27;20051;-73
2022/04/23 01:00:43;;;;;;;126.68;115.38;;;13.50;63.30;;;;;;5133961;27;20443;-73
2022/04/23 01:03:12;;;;;;;127.07;116.03;;;13.60;63.20;;;;;;5131832;27;20458;-73
2022/04/23 01:05:41;;;;;;;125.30;114.30;;;13.50;63.20;;;;;;5132423;27;20052;-73
2022/04/23 01:08:09;;;;;;;126.00;115.03;;;13.60;63.20;;;;;;5132094;27;20090;-73
2022/04/23 01:10:35;;;;;;;127.75;116.40;;;13.60;63.60;;;;;;5133859;27;20047;-72
2022/04/23 01:13:04;;;;;;;126.50;115.30;;;13.60;63.10;;;;;;5149475;27;20101;-73
2022/04/23 01:15:31;;;;;;;126.32;115.28;;;13.50;63.20;;;;;;5131957;27;20048;-73
2022/04/23 01:17:58;;;;;;;127.50;116.43;;;13.50;63.40;;;;;;5114546;27;20067;-73
2022/04/23 01:20:26;;;;;;;128.60;117.20;;;13.50;63.30;;;;;;5131557;27;20485;-72
2022/04/23 01:22:53;;;;;;;127.72;116.50;;;13.40;63.50;;;;;;5133213;27;20051;-72
2022/04/23 01:25:22;;;;;;;125.70;114.82;;;13.40;63.50;;;;;;5132188;27;20047;-72
2022/04/23 01:27:52;;;;;;;126.93;115.82;;;13.40;63.70;;;;;;5134871;27;20126;-72
2022/04/23 01:30:19;;;;;;;126.63;115.53;;;13.30;63.60;;;;;;5135443;27;20058;-72
2022/04/23 01:32:50;;;;;;;127.57;116.47;;;13.30;63.70;;;;;;5136946;27;20052;-72
2022/04/23 01:35:17;;;;;;;126.18;115.13;;;13.30;63.80;;;;;;5135729;27;20575;-73
2022/04/23 01:37:46;;;;;;;125.63;114.70;;;13.20;63.90;;;;;;5152640;27;20134;-72
2022/04/23 01:40:13;;;;;;;127.75;116.32;;;13.20;64.00;;;;;;5136793;27;20550;-73
2022/04/23 01:42:40;;;;;;;127.63;116.63;;;13.20;64.10;;;;;;5135663;27;20054;-72
2022/04/23 01:45:07;;;;;;;127.32;116.32;;;13.20;64.20;;;;;;5135747;27;20039;-72
2022/04/23 01:47:34;;;;;;;125.97;114.80;;;13.10;64.00;;;;;;5152517;27;20051;-72
2022/04/23 01:50:01;;;;;;;127.60;116.35;;;13.20;64.20;;;;;;5135715;27;20048;-73
2022/04/23 01:52:28;;;;;;;125.18;114.18;;;13.10;64.30;;;;;;5136284;27;20089;-72
2022/04/23 01:54:56;;;;;;;124.90;113.90;;;13.10;64.40;;;;;;5136600;27;20130;-72
2022/04/23 01:57:23;;;;;;;125.45;114.55;;;13.00;64.50;;;;;;5151845;27;20048;-72
2022/04/23 01:59:50;;;;;;;127.60;116.22;;;13.00;64.60;;;;;;5152969;27;20055;-72
2022/04/23 02:02:18;;;;;;;124.28;113.38;;;13.00;64.80;;;;;;5134980;27;20044;-72
2022/04/23 02:04:45;;;;;;;124.07;113.07;;;13.00;64.80;;;;;;5134252;27;20053;-72
2022/04/23 02:07:12;;;;;;;126.80;115.80;;;13.00;64.90;;;;;;5136085;27;20059;-72
2022/04/23 02:09:38;;;;;;;123.07;112.35;;;13.00;64.90;;;;;;5152414;27;20475;-73
2022/04/23 02:12:08;;;;;;;123.53;112.57;;;13.00;65.00;;;;;;5135927;27;20040;-72
2022/04/23 02:14:36;;;;;;;124.13;113.18;;;12.90;65.00;;;;;;5152167;27;20139;-72
2022/04/23 02:17:03;;;;;;;127.20;115.95;;;12.90;65.10;;;;;;5134484;27;20051;-72
2022/04/23 02:19:30;;;;;;;122.38;111.57;;;12.80;65.70;;;;;;5134392;27;20441;-73
2022/04/23 02:21:57;;;;;;;122.13;111.30;;;12.80;65.50;;;;;;5152049;27;20049;-72
2022/04/23 02:24:24;;;;;;;120.80;110.05;;;12.80;65.60;;;;;;5135941;27;20047;-72
2022/04/23 02:26:51;;;;;;;122.25;111.40;;;12.80;65.70;;;;;;5151926;27;20610;-72
2022/04/23 02:29:19;;;;;;;122.22;111.28;;;12.80;65.80;;;;;;5151952;27;20139;-72
2022/04/23 02:31:46;;;;;;;122.18;111.28;;;12.80;65.70;;;;;;5135175;27;20491;-72
2022/04/23 02:34:13;;;;;;;122.18;111.07;;;12.70;65.90;;;;;;5136018;27;20142;-72
2022/04/23 02:36:40;;;;;;;120.80;110.03;;;12.70;66.10;;;;;;5134709;27;20058;-72
2022/04/23 02:39:07;;;;;;;122.93;111.63;;;12.60;66.40;;;;;;5133809;27;20477;-72
2022/04/23 02:41:34;;;;;;;122.03;111.13;;;12.60;66.60;;;;;;5134526;27;20058;-72
2022/04/23 02:44:03;;;;;;;122.55;111.50;;;12.60;66.70;;;;;;5135762;27;20082;-72
2022/04/23 02:46:31;;;;;;;122.80;111.82;;;12.50;66.90;;;;;;5135829;27;20051;-72
2022/04/23 02:48:59;;;;;;;122.78;111.70;;;12.50;67.10;;;;;;5117189;27;20520;-72
2022/04/23 02:51:26;;;;;;;124.10;113.07;;;12.40;67.40;;;;;;5134489;27;20564;-72
2022/04/23 02:53:53;;;;;;;121.78;110.63;;;12.40;67.50;;;;;;5151349;27;20057;-72
2022/04/23 02:56:19;;;;;;;120.78;110.07;;;12.30;67.90;;;;;;5151754;27;20451;-72
2022/04/23 02:58:46;;;;;;;120.88;110.15;;;12.30;68.00;;;;;;5134869;27;20060;-72
2022/04/23 03:01:13;;;;;;;119.38;108.85;;;12.20;68.50;;;;;;5135312;27;20044;-72
2022/04/23 03:03:42;;;;;;;121.78;110.93;;;12.20;68.60;;;;;;5133791;27;20051;-72
2022/04/23 03:06:09;;;;;;;120.10;109.47;;;12.10;68.90;;;;;;5133647;27;20054;-72
2022/04/23 03:08:38;;;;;;;120.57;109.88;;;12.10;69.00;;;;;;5133785;27;20043;-72
2022/04/23 03:11:07;;;;;;;119.88;109.07;;;12.10;69.30;;;;;;5135198;27;20652;-72
2022/04/23 03:13:35;;;;;;;122.60;111.63;;;12.10;69.50;;;;;;5134137;27;20092;-72
2022/04/23 03:16:03;;;;;;;121.97;111.15;;;12.10;69.40;;;;;;5133893;27;20119;-72
2022/04/23 03:18:30;;;;;;;120.20;109.53;;;12.10;69.60;;;;;;5134163;27;20501;-72
2022/04/23 03:20:59;;;;;;;121.22;110.43;;;12.00;69.90;;;;;;5151053;27;20123;-72
2022/04/23 03:23:27;;;;;;;121.68;110.68;;;12.00;70.00;;;;;;5135767;27;20059;-72
2022/04/23 03:25:54;;;;;;;119.35;108.80;;;12.00;70.00;;;;;;5151108;27;20059;-72
2022/04/23 03:28:22;;;;;;;121.30;110.60;;;12.00;70.20;;;;;;5133422;27;20054;-72
2022/04/23 03:30:49;;;;;;;121.40;110.63;;;12.00;70.20;;;;;;5133675;27;20055;-72
2022/04/23 03:33:16;;;;;;;121.57;110.90;;;12.00;70.30;;;;;;5150970;27;20061;-72
2022/04/23 03:35:44;;;;;;;121.03;110.25;;;12.00;70.60;;;;;;5133936;27;20047;-72
2022/04/23 03:38:12;;;;;;;121.40;110.57;;;11.90;70.60;;;;;;5133186;27;20537;-72
2022/04/23 03:40:39;;;;;;;120.78;110.03;;;11.90;70.60;;;;;;5133054;27;20040;-72
2022/04/23 03:43:06;;;;;;;121.47;110.78;;;11.90;70.70;;;;;;5134517;27;20055;-72
2022/04/23 03:45:33;;;;;;;120.68;110.03;;;11.90;70.70;;;;;;5134627;27;20063;-72
2022/04/23 03:48:01;;;;;;;120.35;109.65;;;12.00;70.60;;;;;;5133078;27;20043;-72
2022/04/23 03:50:29;;;;;;;120.50;109.88;;;12.00;70.60;;;;;;5133712;27;20470;-72
2022/04/23 03:52:57;;;;;;;119.68;109.25;;;12.00;70.60;;;;;;5115568;27;20051;-72
2022/04/23 03:55:26;;;;;;;120.30;109.70;;;12.10;70.40;;;;;;5133246;27;20051;-72
2022/04/23 03:57:54;;;;;;;121.00;110.30;;;12.00;70.40;;;;;;5115644;27;20053;-72
2022/04/23 04:00:22;;;;;;;118.93;108.53;;;12.00;70.40;;;;;;5132781;27;20043;-73
2022/04/23 04:02:50;;;;;;;120.35;109.82;;;12.00;70.30;;;;;;5116130;27;20437;-72
2022/04/23 04:05:17;;;;;;;119.22;108.60;;;11.90;70.20;;;;;;5132851;27;20130;-72
2022/04/23 04:07:46;;;;;;;120.70;109.88;;;11.90;70.80;;;;;;5133956;27;20052;-72
2022/04/23 04:10:14;;;;;;;119.32;108.97;;;11.80;70.40;;;;;;5134177;27;20127;-72
2022/04/23 04:12:43;;;;;;;119.72;108.93;;;11.80;70.40;;;;;;5115602;27;20126;-72
2022/04/23 04:15:12;;;;;;;119.95;109.32;;;11.80;70.50;;;;;;5132982;27;20079;-72
2022/04/23 04:17:40;;;;;;;120.38;109.90;;;11.80;70.40;;;;;;5149595;27;20109;-72
2022/04/23 04:20:10;;;;;;;118.93;108.40;;;11.80;70.50;;;;;;5132488;27;20126;-72
2022/04/23 04:22:38;;;;;;;119.88;108.88;;;11.70;70.60;;;;;;5132760;27;20047;-72
2022/04/23 04:25:06;;;;;;;119.80;109.10;;;11.70;70.70;;;;;;5134234;27;20043;-72
2022/04/23 04:27:34;;;;;;;120.55;109.88;;;11.60;70.90;;;;;;5132466;27;20508;-72
2022/04/23 04:30:02;;;;;;;120.68;109.97;;;11.60;71.00;;;;;;5132205;27;20044;-72
2022/04/23 04:32:29;;;;;;;120.60;110.00;;;11.50;71.00;;;;;;5132572;27;20051;-72
2022/04/23 04:34:56;;;;;;;121.85;110.95;;;11.50;71.00;;;;;;5132595;27;20039;-72
2022/04/23 04:37:24;;;;;;;127.75;116.75;;;11.50;71.10;;;;;;5132257;27;20055;-72
2022/04/23 04:39:51;;;;;;;120.07;109.25;;;11.50;71.30;;;;;;5133681;27;20437;-72
2022/04/23 04:42:18;;;;;;;122.93;111.82;;;11.40;71.30;;;;;;5132455;27;20436;-72
2022/04/23 04:44:45;;;;;;;122.80;111.80;;;11.40;71.40;;;;;;5149962;27;20048;-72
2022/04/23 04:47:13;;;;;;;122.00;111.22;;;11.40;71.50;;;;;;5132508;27;20055;-72
2022/04/23 04:49:40;;;;;;;121.68;110.97;;;11.40;71.60;;;;;;5133928;27;20560;-72
2022/04/23 04:52:08;;;;;;;120.40;109.60;;;11.40;71.70;;;;;;5132881;27;20085;-72
2022/04/23 04:54:35;;;;;;;126.47;115.40;;;11.30;71.70;;;;;;5149542;27;20048;-72
2022/04/23 04:57:03;;;;;;;121.43;110.57;;;11.30;71.90;;;;;;5132530;27;20501;-72
2022/04/23 04:59:32;;;;;;;120.70;109.72;;;11.30;72.00;;;;;;5149634;27;20040;-72
2022/04/23 05:02:00;;;;;;;121.70;110.80;;;11.30;72.00;;;;;;5134508;27;20048;-72
2022/04/23 05:04:28;;;;;;;120.78;109.78;;;11.30;72.20;;;;;;5135973;27;20055;-72
2022/04/23 05:06:55;;;;;;;122.35;111.45;;;11.30;72.20;;;;;;5135460;27;20044;-72
2022/04/23 05:09:22;;;;;;;118.03;107.57;;;11.30;72.20;;;;;;5153196;27;20054;-72
2022/04/23 05:11:49;;;;;;;120.55;109.75;;;11.30;72.20;;;;;;5153309;27;20131;-72
2022/04/23 05:14:18;;;;;;;120.25;109.60;;;11.30;72.40;;;;;;5137127;27;20051;-72
2022/04/23 05:16:45;;;;;;;118.82;108.05;;;11.30;72.50;;;;;;5153244;27;20047;-72
2022/04/23 05:19:12;;;;;;;118.22;107.72;;;11.20;72.30;;;;;;5152386;27;20052;-72
2022/04/23 05:21:40;;;;;;;119.45;108.85;;;11.30;72.50;;;;;;5152879;27;20047;-72
2022/04/23 05:24:07;;;;;;;121.18;110.65;;;11.30;72.40;;;;;;5135623;27;20513;-72
2022/04/23 05:26:35;;;;;;;119.95;109.25;;;11.30;72.30;;;;;;5135588;27;20044;-72
2022/04/23 05:29:02;;;;;;;118.40;107.90;;;11.30;72.40;;;;;;5135415;27;20043;-72
2022/04/23 05:31:29;;;;;;;117.50;107.15;;;11.30;72.30;;;;;;5135171;27;20044;-72
2022/04/23 05:33:56;;;;;;;118.22;107.70;;;11.30;72.30;;;;;;5152896;27;20059;-72
2022/04/23 05:36:23;;;;;;;119.32;108.75;;;11.30;72.30;;;;;;5135916;27;20113;-72
2022/04/23 05:38:51;;;;;;;117.57;107.07;;;11.30;72.30;;;;;;5135344;27;20500;-72
2022/04/23 05:41:18;;;;;;;118.68;108.18;;;11.20;72.30;;;;;;5152914;27;20050;-72
2022/04/23 05:43:45;;;;;;;119.18;108.55;;;11.20;72.40;;;;;;5136359;27;20505;-72
2022/04/23 05:46:12;;;;;;;117.72;107.32;;;11.20;72.40;;;;;;5135046;27;20047;-72
2022/04/23 05:48:39;;;;;;;117.82;107.18;;;11.20;72.60;;;;;;5133982;27;20044;-72
2022/04/23 05:51:06;;;;;;;117.70;107.10;;;11.30;72.40;;;;;;5131054;27;20493;-72
2022/04/23 05:53:33;;;;;;;121.88;110.00;;;11.30;72.10;;;;;;5134429;27;20506;-72
2022/04/23 05:56:01;;;;;;;118.13;107.32;;;11.30;72.70;;;;;;5135943;27;20567;-72
2022/04/23 05:58:28;;;;;;;118.07;107.35;;;11.30;72.00;;;;;;5134913;27;20044;-72
2022/04/23 06:00:56;;;;;;;117.38;106.93;;;11.30;72.10;;;;;;5135241;27;20055;-72
2022/04/23 06:03:23;;;;;;;117.35;106.70;;;11.30;71.80;;;;;;5117620;27;20040;-72
2022/04/23 06:05:50;;;;;;;118.60;108.13;;;11.30;71.90;;;;;;5134097;27;20707;-72
2022/04/23 06:08:17;;;;;;;117.53;106.95;;;11.30;72.10;;;;;;5124474;27;20105;-72
2022/04/23 06:10:44;;;;;;;117.20;106.80;;;11.30;72.20;;;;;;5133781;27;20502;-73
2022/04/23 06:13:13;;;;;;;118.43;107.93;;;11.30;72.10;;;;;;5134929;27;20051;-72
2022/04/23 06:15:40;;;;;;;118.88;107.35;;;11.30;72.30;;;;;;5132324;27;20056;-73
2022/04/23 06:18:07;;;;;;;117.55;106.82;;;11.30;72.30;;;;;;5133588;27;20048;-73
2022/04/23 06:20:34;;;;;;;118.53;107.53;;;11.30;72.40;;;;;;5133126;27;20122;-73
2022/04/23 06:23:04;;;;;;;118.32;107.40;;;11.30;72.40;;;;;;5151475;27;20571;-73
2022/04/23 06:25:31;;;;;;;119.30;107.38;;;11.40;72.60;;;;;;5134005;27;20052;-73
2022/04/23 06:27:58;;;;;;;116.88;106.47;;;11.40;72.10;;;;;;5132278;27;20044;-74
2022/04/23 06:30:26;;;;;;;118.70;108.00;;;11.50;72.10;;;;;;5133516;27;20054;-74
2022/04/23 06:32:53;;;;;;;118.05;107.50;;;11.50;71.90;;;;;;5150105;27;20253;-74
2022/04/23 06:35:20;;;;;;;118.10;107.50;;;11.50;71.80;;;;;;5132002;27;20048;-73
2022/04/23 06:37:47;;;;;;;118.72;107.93;;;11.50;71.90;;;;;;5133178;27;20070;-74
2022/04/23 06:40:14;;;;;;;118.03;106.80;;;11.50;71.90;;;;;;5116174;27;20039;-74
2022/04/23 06:42:42;;;;;;;117.93;107.35;;;11.60;72.00;;;;;;5133256;27;20506;-73
2022/04/23 06:45:12;;;;;;;121.38;110.57;;;11.60;71.90;;;;;;5115837;27;20054;-73
2022/04/23 06:47:40;;;;;;;123.65;112.57;;;11.60;72.00;;;;;;5133000;27;20138;-74
2022/04/23 06:50:08;;;;;;;117.35;106.88;;;11.60;71.70;;;;;;5133467;27;20406;-73
2022/04/23 06:52:36;;;;;;;119.45;108.85;;;11.60;71.70;;;;;;5133409;27;20043;-75
2022/04/23 06:55:05;;;;;;;119.75;108.95;;;11.70;71.90;;;;;;5133416;27;20488;-73
2022/04/23 06:57:32;;;;;;;120.70;109.78;;;11.70;71.60;;;;;;5133643;27;20051;-73
2022/04/23 07:00:01;;;;;;;124.35;113.25;;;11.70;71.40;;;;;;5126931;27;20143;-75
2022/04/23 07:02:28;;;;;;;123.57;112.10;;;11.80;71.60;;;;;;5127675;27;20072;-74
2022/04/23 07:04:56;;;;;;;119.75;108.97;;;11.80;71.60;;;;;;5124342;27;20051;-74
2022/04/23 07:07:23;;;;;;;122.40;110.82;;;11.90;71.70;;;;;;5123567;27;20100;-74
2022/04/23 07:09:50;;;;;;;123.10;109.50;;;11.90;71.40;;;;;;5123584;27;20193;-73
2022/04/23 07:12:17;;;;;;;123.07;111.28;;;12.00;71.10;;;;;;5123979;27;20074;-74
2022/04/23 07:14:44;;;;;;;126.03;114.72;;;12.10;70.80;;;;;;5124328;27;20060;-74
2022/04/23 07:17:11;;;;;;;122.97;112.07;;;12.10;70.40;;;;;;5122267;27;20041;-74
2022/04/23 07:19:41;;;;;;;120.25;108.75;;;12.10;70.40;;;;;;5119905;27;20138;-73
2022/04/23 07:22:11;;;;;;;120.72;109.72;;;12.20;70.30;;;;;;5121050;27;20521;-74
2022/04/23 07:24:38;;;;;;;123.07;111.40;;;12.20;70.10;;;;;;5130123;27;20060;-74
2022/04/23 07:27:06;;;;;;;125.00;112.43;;;12.20;70.20;;;;;;5130929;27;20047;-74
2022/04/23 07:29:32;;;;;;;121.00;109.53;;;12.30;70.00;;;;;;5133857;27;20139;-73
2022/04/23 07:31:59;;;;;;;120.32;108.60;;;12.30;69.90;;;;;;5130467;27;20051;-73
2022/04/23 07:37:31;;;;;;;118.80;107.80;;;12.40;69.70;;;;;;5123805;27;20055;-73
2022/04/23 07:39:58;;;;;;;119.88;109.07;;;12.50;69.40;;;;;;5124472;27;20047;-72
2022/04/23 07:42:26;;;;;;;119.90;109.00;;;12.50;69.10;;;;;;5124973;27;20139;-73
2022/04/23 07:44:52;;;;;;;119.97;109.18;;;12.60;69.10;;;;;;5121742;27;20506;-72
2022/04/23 07:47:19;;;;;;;210.30;112.30;;;12.70;69.00;;;;;;5120389;27;20044;-73
2022/04/23 07:49:47;;;;;;;129.85;113.35;;;12.70;68.30;;;;;;5124509;27;20047;-72
2022/04/23 07:52:15;;;;;;;121.47;109.80;;;12.70;68.00;;;;;;5127953;27;20055;-73
2022/04/23 07:54:43;;;;;;;121.25;109.95;;;12.70;67.80;;;;;;5128815;27;20049;-73
2022/04/23 07:57:11;;;;;;;123.75;112.20;;;12.80;67.40;;;;;;5146710;27;20048;-74
2022/04/23 07:59:40;;;;;;;124.65;112.75;;;12.90;67.50;;;;;;5131501;27;20047;-74
2022/04/23 08:02:07;;;;;;;168.52;111.28;;;12.90;66.70;;;;;;5122630;27;20059;-74
2022/04/23 08:04:34;;;;;;;132.13;110.95;;;13.00;65.90;;;;;;5120750;27;20083;-74
2022/04/23 08:07:01;;;;;;;159.23;113.38;;;13.00;64.50;;;;;;5120898;27;20131;-73
2022/04/23 08:09:29;;;;;;;121.72;110.43;;;13.10;64.30;;;;;;5129741;27;20062;-73
2022/04/23 08:11:56;;;;;;;140.60;110.30;;;13.10;63.80;;;;;;5165237;27;20460;-73
2022/04/23 08:14:23;;;;;;;139.27;109.18;;;13.20;64.10;;;;;;5132349;27;20748;-73
2022/04/23 08:16:50;;;;;;;165.43;111.45;;;13.20;63.20;;;;;;5127159;27;20142;-73
2022/04/23 08:19:18;;;;;;;122.30;110.13;;;13.20;63.00;;;;;;5121742;27;20056;-76
2022/04/23 08:21:45;;;;;;;118.40;107.60;;;13.30;62.20;;;;;;5114607;27;20054;-74
2022/04/23 08:24:12;;;;;;;119.82;109.07;;;13.30;62.50;;;;;;5132197;27;20060;-75
2022/04/23 08:26:40;;;;;;;125.45;110.03;;;13.40;63.00;;;;;;5131957;27;20048;-75
2022/04/23 08:31:52;;;;;;;128.15;110.43;;;13.50;61.90;;;;;;5130562;27;20178;-75
2022/04/23 08:34:19;;;;;;;127.13;113.57;;;13.50;61.90;;;;;;5133120;27;20138;-75
2022/04/23 08:36:49;;;;;;;121.00;109.85;;;13.60;61.40;;;;;;5135162;27;20134;-75
2022/04/23 08:39:16;;;;;;;122.30;110.75;;;13.60;61.40;;;;;;5132918;27;20438;-75
2022/04/23 08:41:46;;;;;;;119.32;108.38;;;13.60;61.80;;;;;;5136012;27;20052;-75
2022/04/23 08:44:14;;;;;;;123.07;111.68;;;13.70;61.60;;;;;;5137166;27;20138;-72
2022/04/23 08:46:41;;;;;;;125.63;112.57;;;13.80;61.00;;;;;;5136210;27;20094;-72
2022/04/23 08:49:11;;;;;;;267.05;119.75;;;13.80;60.80;;;;;;5134913;27;20056;-74
2022/04/23 08:51:40;;;;;;;123.95;111.32;;;13.90;61.60;;;;;;5136564;27;20403;-74
2022/04/23 08:54:08;;;;;;;124.15;112.88;;;13.90;60.80;;;;;;5135044;27;20127;-73
2022/04/23 08:56:37;;;;;;;128.95;116.20;;;14.00;60.60;;;;;;5151129;27;20109;-74
2022/04/23 08:59:07;;;;;;;124.20;113.03;;;14.10;60.30;;;;;;5134581;27;20051;-74
2022/04/23 09:01:35;;;;;;;125.97;113.88;;;14.10;60.40;;;;;;5135355;27;20051;-74
2022/04/23 09:04:03;;;;;;;125.18;113.72;;;14.20;60.20;;;;;;5133846;27;20058;-74
2022/04/23 09:06:38;;;;;;;128.48;116.82;;;14.20;60.10;;;;;;5132410;27;20128;-72
2022/04/23 09:09:12;;;;;;;127.82;114.90;;;14.20;60.30;;;;;;5116114;27;20596;-72
2022/04/23 09:11:40;;;;;;;128.60;115.07;;;14.30;59.60;;;;;;5126814;27;20052;-73
2022/04/23 09:14:10;;;;;;;124.07;113.03;;;14.40;59.40;;;;;;5122839;27;20048;-73
2022/04/23 09:25:08;;;;;;;125.85;114.22;;;14.50;59.70;;;;;;5124510;27;20384;-72
2022/04/23 09:27:35;;;;;;;124.80;112.78;;;14.60;59.60;;;;;;5126583;27;20050;-72
2022/04/23 09:30:07;;;;;;;125.53;114.40;;;14.60;59.80;;;;;;5129258;27;20051;-72
2022/04/23 09:32:34;;;;;;;125.55;113.57;;;14.70;60.00;;;;;;5125915;27;20153;-72
2022/04/23 09:35:09;;;;;;;127.22;115.95;;;14.80;59.20;;;;;;5123660;27;20051;-72
2022/04/23 09:40:23;;;;;;;125.65;114.22;;;14.90;58.90;;;;;;5133445;27;20055;-70
2022/04/23 09:42:59;;;;;;;125.82;114.25;;;14.90;58.80;;;;;;5136231;27;20859;-72
2022/04/23 09:45:30;;;;;;;258.55;121.13;;;15.00;58.80;;;;;;5134508;27;20043;-72
2022/04/23 09:47:58;;;;;;;123.60;112.78;;;15.00;58.70;;;;;;5132958;27;20493;-72
2022/04/23 09:50:25;;;;;;;125.28;113.95;;;15.00;58.50;;;;;;5136456;27;20082;-72
2022/04/23 09:52:53;;;;;;;125.85;113.68;;;15.10;58.70;;;;;;5152065;27;20051;-72
2022/04/23 09:55:26;;;;;;;125.85;115.22;;;15.10;58.80;;;;;;5134888;27;20056;-72
2022/04/23 09:57:54;;;;;;;127.18;115.68;;;15.20;58.20;;;;;;5134175;27;20062;-72
2022/04/23 10:00:21;;;;;;;128.77;117.20;;;15.20;58.20;;;;;;5126418;27;20106;-72
2022/04/23 10:02:53;;;;;;;127.32;115.75;;;15.30;58.10;;;;;;5125797;27;20056;-72
2022/04/23 10:05:22;;;;;;;125.40;114.55;;;15.30;58.10;;;;;;5107513;27;20151;-72
2022/04/23 10:07:52;;;;;;;128.27;116.05;;;15.40;58.40;;;;;;5123066;27;20572;-72
2022/04/23 10:10:22;;;;;;;127.53;116.32;;;15.40;58.00;;;;;;5123324;27;20491;-72
2022/04/23 10:12:51;;;;;;;128.07;117.30;;;15.50;57.90;;;;;;5123466;27;20048;-72
2022/04/23 10:15:18;;;;;;;129.18;118.20;;;15.60;58.30;;;;;;5104068;27;20051;-72
2022/04/23 10:17:45;;;;;;;125.80;115.25;;;15.60;57.90;;;;;;5157430;27;20045;-72
2022/04/23 10:20:14;;;;;;;128.35;116.65;;;15.60;57.60;;;;;;5123115;27;20426;-72
2022/04/23 10:23:05;;;;;;;126.10;115.40;;;15.60;57.10;;;;;;5124313;27;20048;-71
2022/04/23 10:25:50;;;;;;;131.38;119.47;;;15.70;57.20;;;;;;5132943;27;20044;-72
2022/04/23 10:28:18;;;;;;;127.50;115.80;;;15.70;57.00;;;;;;5135518;27;20048;-72
2022/04/23 10:30:47;;;;;;;206.35;122.47;;;15.80;56.90;;;;;;5135484;27;20078;-72
2022/04/23 10:33:28;;;;;;;127.45;116.78;;;15.80;56.50;;;;;;5135205;27;20051;-72
2022/04/23 10:36:09;;;;;;;127.78;117.28;;;15.90;57.20;;;;;;5135315;27;20048;-72
2022/04/23 10:38:41;;;;;;;127.25;116.60;;;15.90;57.40;;;;;;5148665;27;20051;-74
2022/04/23 10:41:09;;;;;;;134.25;122.93;;;16.00;56.80;;;;;;5132756;27;20085;-75
2022/04/23 10:43:36;;;;;;;128.32;117.65;;;16.00;56.10;;;;;;5132244;27;20052;-75
2022/04/23 10:46:07;;;;;;;130.55;119.35;;;16.10;56.00;;;;;;5133578;27;20058;-75
2022/04/23 10:48:34;;;;;;;132.23;118.78;;;16.10;56.20;;;;;;5134312;27;20127;-74
2022/04/23 10:51:15;;;;;;;127.95;117.30;;;16.20;55.90;;;;;;5135552;27;20058;-74
2022/04/23 10:53:53;;;;;;;127.53;116.95;;;16.20;55.80;;;;;;5134366;27;20483;-74
2022/04/23 10:56:23;;;;;;;131.20;120.28;;;16.30;56.30;;;;;;5134242;27;20052;-75
2022/04/23 10:58:52;;;;;;;126.13;115.57;;;16.30;56.00;;;;;;5123743;27;20047;-74
2022/04/23 11:01:25;;;;;;;129.48;118.70;;;16.40;55.70;;;;;;5122319;27;20048;-75
2022/04/23 11:04:12;;;;;;;131.23;120.20;;;16.40;55.60;;;;;;5144869;27;20051;-75
2022/04/23 11:12:37;;;;;;;;;;;16.60;54.10;;;;;;5133332;27;20044;-74
2022/04/23 11:15:15;;;;;;;127.40;116.82;;;16.60;54.60;;;;;;5140254;27;20270;-74
2022/04/23 11:17:54;;;;;;;127.07;116.68;;;16.70;54.10;;;;;;5126477;27;20066;-75
2022/04/23 11:20:29;;;;;;;127.13;117.03;;;16.80;53.90;;;;;;5106221;27;20417;-74
2022/04/23 11:22:59;;;;;;;127.82;117.50;;;16.80;53.80;;;;;;5123958;27;20048;-74
2022/04/23 11:25:26;;;;;;;127.80;117.47;;;16.90;54.20;;;;;;5112453;27;20048;-73
2022/04/23 11:28:00;;;;;;;224.38;122.78;;;16.90;53.90;;;;;;5095360;28;20082;-73
2022/04/23 11:30:29;;;;;;;142.63;118.10;;;17.00;54.00;;;;;;5112825;28;20125;-73
2022/04/23 11:33:09;;;;;;;127.10;116.68;;;17.00;53.00;;;;;;5112494;28;20476;-73
2022/04/23 11:35:36;;;;;;;129.88;119.20;;;17.10;53.30;;;;;;5112335;28;20051;-73
2022/04/23 11:38:05;;;;;;;127.25;116.78;;;17.10;53.00;;;;;;5113260;28;20506;-73
2022/04/23 11:40:35;;;;;;;131.30;120.55;;;17.20;53.10;;;;;;5112270;28;20040;-73
2022/04/23 11:43:02;;;;;;;135.55;124.53;;;17.20;52.60;;;;;;5112742;28;20509;-73
2022/04/23 11:45:29;;;;;;;126.63;116.32;;;17.20;52.80;;;;;;5111339;28;20113;-73
2022/04/23 11:47:56;;;;;;;129.90;119.15;;;17.30;52.80;;;;;;5110775;28;20557;-73
2022/04/23 11:50:23;;;;;;;131.13;118.38;;;17.30;51.70;;;;;;5116391;27;20039;-74
2022/04/23 11:53:01;;;;;;;129.48;119.38;;;17.30;51.60;;;;;;5132974;27;20051;-73
2022/04/23 11:55:30;;;;;;;130.85;118.97;;;17.40;51.80;;;;;;5131833;27;20051;-73
2022/04/23 11:57:59;;;;;;;128.10;117.70;;;17.40;51.70;;;;;;5114072;27;20050;-73
2022/04/23 12:00:27;;;;;;;125.63;115.45;;;17.50;50.90;;;;;;5133911;27;20138;-73
2022/04/23 12:02:55;;;;;;;127.13;116.55;;;17.50;51.20;;;;;;5123810;27;20141;-73
2022/04/23 12:05:24;;;;;;;128.15;117.93;;;17.60;50.90;;;;;;5122094;27;20113;-73
2022/04/23 12:07:51;;;;;;;130.90;120.53;;;17.60;50.70;;;;;;5123167;27;20119;-73
2022/04/23 12:10:24;;;;;;;129.82;117.55;;;17.70;50.50;;;;;;5122237;27;20043;-73
2022/04/23 12:12:53;;;;;;;129.93;118.95;;;17.70;50.30;;;;;;5122958;27;20052;-73
2022/04/23 12:15:21;;;;;;;125.78;115.55;;;17.70;50.00;;;;;;5123086;27;20071;-73
2022/04/23 12:17:49;;;;;;;125.35;115.35;;;17.70;49.80;;;;;;5121071;27;20044;-73
2022/04/23 12:20:18;;;;;;;129.50;116.13;;;17.70;50.00;;;;;;5120122;27;20040;-73
2022/04/23 12:22:58;;;;;;;129.52;119.43;;;17.80;50.20;;;;;;5097233;28;20559;-74
2022/04/23 12:25:26;;;;;;;127.53;117.63;;;17.80;50.60;;;;;;5147768;27;20056;-73
2022/04/23 12:27:59;;;;;;;130.23;118.85;;;17.90;50.10;;;;;;5129741;27;20183;-73
2022/04/23 12:41:54;;;;;;;126.85;117.20;;;18.10;47.70;;;;;;5132124;27;20127;-72
2022/04/23 12:44:23;;;;;;;125.05;115.07;;;18.10;47.80;;;;;;5147254;27;20510;-74
2022/04/23 12:46:54;;;;;;;126.22;115.78;;;18.20;48.80;;;;;;5120474;27;20088;-72
2022/04/23 12:49:22;;;;;;;128.02;118.13;;;18.20;47.60;;;;;;5138237;27;20061;-72